sensor_id;sensor_type;location;lat;lon;timestamp;temperature;humidity
25945;SHT31;13742;49.306;8.636;2024-02-23T00:00:50;9.22;70.37
25945;SHT31;13742;49.306;8.636;2024-02-23T00:01:51;9.20;70.41
25945;SHT31;13742;49.306;8.636;2024-02-23T00:02:50;9.19;70.30
25945;SHT31;13742;49.306;8.636;2024-02-23T00:03:50;9.19;70.53
25945;SHT31;13742;49.306;8.636;2024-02-23T00:04:50;9.17;70.37
25945;SHT31;13742;49.306;8.636;2024-02-23T00:05:50;9.14;70.43
25945;SHT31;13742;49.306;8.636;2024-02-23T00:06:50;9.16;70.73
25945;SHT31;13742;49.306;8.636;2024-02-23T00:07:50;9.14;70.76
25945;SHT31;13742;49.306;8.636;2024-02-23T00:08:50;9.13;71.09
25945;SHT31;13742;49.306;8.636;2024-02-23T00:09:50;9.10;71.20
25945;SHT31;13742;49.306;8.636;2024-02-23T00:10:50;9.12;71.20
25945;SHT31;13742;49.306;8.636;2024-02-23T00:11:50;9.09;71.33
25945;SHT31;13742;49.306;8.636;2024-02-23T00:12:50;9.12;71.66
25945;SHT31;13742;49.306;8.636;2024-02-23T00:13:50;9.10;71.63
25945;SHT31;13742;49.306;8.636;2024-02-23T00:14:51;9.10;71.70
25945;SHT31;13742;49.306;8.636;2024-02-23T00:15:50;9.03;71.79
25945;SHT31;13742;49.306;8.636;2024-02-23T00:16:50;9.03;72.19
25945;SHT31;13742;49.306;8.636;2024-02-23T00:17:50;9.02;72.67
25945;SHT31;13742;49.306;8.636;2024-02-23T00:18:50;8.99;72.53
25945;SHT31;13742;49.306;8.636;2024-02-23T00:19:52;8.99;73.07
25945;SHT31;13742;49.306;8.636;2024-02-23T00:20:50;9.00;73.42
25945;SHT31;13742;49.306;8.636;2024-02-23T00:21:50;9.00;73.17
25945;SHT31;13742;49.306;8.636;2024-02-23T00:22:50;9.00;73.46
25945;SHT31;13742;49.306;8.636;2024-02-23T00:23:50;8.99;73.45
25945;SHT31;13742;49.306;8.636;2024-02-23T00:24:50;9.00;73.53
25945;SHT31;13742;49.306;8.636;2024-02-23T00:25:50;8.98;73.44
25945;SHT31;13742;49.306;8.636;2024-02-23T00:26:51;8.99;73.67
25945;SHT31;13742;49.306;8.636;2024-02-23T00:27:50;8.95;73.53
25945;SHT31;13742;49.306;8.636;2024-02-23T00:28:50;8.95;73.57
25945;SHT31;13742;49.306;8.636;2024-02-23T00:29:50;8.92;73.33
25945;SHT31;13742;49.306;8.636;2024-02-23T00:30:50;8.92;73.79
25945;SHT31;13742;49.306;8.636;2024-02-23T00:31:50;8.91;73.74
25945;SHT31;13742;49.306;8.636;2024-02-23T00:32:50;8.92;73.63
25945;SHT31;13742;49.306;8.636;2024-02-23T00:33:50;8.89;73.80
25945;SHT31;13742;49.306;8.636;2024-02-23T00:34:50;8.88;73.73
25945;SHT31;13742;49.306;8.636;2024-02-23T00:35:50;8.83;73.94
25945;SHT31;13742;49.306;8.636;2024-02-23T00:36:50;8.82;73.42
25945;SHT31;13742;49.306;8.636;2024-02-23T00:37:50;8.82;72.66
25945;SHT31;13742;49.306;8.636;2024-02-23T00:38:50;8.82;72.12
25945;SHT31;13742;49.306;8.636;2024-02-23T00:39:50;8.83;72.12
25945;SHT31;13742;49.306;8.636;2024-02-23T00:40:50;8.82;72.09
25945;SHT31;13742;49.306;8.636;2024-02-23T00:41:50;8.82;72.10
25945;SHT31;13742;49.306;8.636;2024-02-23T00:42:50;8.83;71.82
25945;SHT31;13742;49.306;8.636;2024-02-23T00:43:50;8.79;71.62
25945;SHT31;13742;49.306;8.636;2024-02-23T00:44:50;8.76;71.35
25945;SHT31;13742;49.306;8.636;2024-02-23T00:45:50;8.71;71.79
25945;SHT31;13742;49.306;8.636;2024-02-23T00:46:50;8.72;71.94
25945;SHT31;13742;49.306;8.636;2024-02-23T00:47:50;8.73;71.59
25945;SHT31;13742;49.306;8.636;2024-02-23T00:48:50;8.73;71.31
25945;SHT31;13742;49.306;8.636;2024-02-23T00:49:50;8.72;71.02
25945;SHT31;13742;49.306;8.636;2024-02-23T00:50:50;8.72;70.39
25945;SHT31;13742;49.306;8.636;2024-02-23T00:51:50;8.68;70.42
25945;SHT31;13742;49.306;8.636;2024-02-23T00:52:50;8.65;69.99
25945;SHT31;13742;49.306;8.636;2024-02-23T00:53:50;8.65;70.59
25945;SHT31;13742;49.306;8.636;2024-02-23T00:54:50;8.65;70.56
25945;SHT31;13742;49.306;8.636;2024-02-23T00:55:50;8.64;70.68
25945;SHT31;13742;49.306;8.636;2024-02-23T00:56:50;8.62;70.62
25945;SHT31;13742;49.306;8.636;2024-02-23T00:57:50;8.64;71.00
25945;SHT31;13742;49.306;8.636;2024-02-23T00:58:50;8.61;71.00
25945;SHT31;13742;49.306;8.636;2024-02-23T00:59:50;8.62;71.18
25945;SHT31;13742;49.306;8.636;2024-02-23T01:00:50;8.62;70.76
25945;SHT31;13742;49.306;8.636;2024-02-23T01:01:50;8.59;70.82
25945;SHT31;13742;49.306;8.636;2024-02-23T01:02:50;8.58;70.33
25945;SHT31;13742;49.306;8.636;2024-02-23T01:03:50;8.55;70.65
25945;SHT31;13742;49.306;8.636;2024-02-23T01:04:50;8.54;71.19
25945;SHT31;13742;49.306;8.636;2024-02-23T01:05:50;8.58;71.41
25945;SHT31;13742;49.306;8.636;2024-02-23T01:06:50;8.55;70.93
25945;SHT31;13742;49.306;8.636;2024-02-23T01:07:50;8.55;70.70
25945;SHT31;13742;49.306;8.636;2024-02-23T01:08:50;8.52;70.56
25945;SHT31;13742;49.306;8.636;2024-02-23T01:09:50;8.54;71.09
25945;SHT31;13742;49.306;8.636;2024-02-23T01:10:50;8.55;71.23
25945;SHT31;13742;49.306;8.636;2024-02-23T01:11:50;8.55;70.67
25945;SHT31;13742;49.306;8.636;2024-02-23T01:12:50;8.52;71.10
25945;SHT31;13742;49.306;8.636;2024-02-23T01:13:50;8.52;70.93
25945;SHT31;13742;49.306;8.636;2024-02-23T01:14:50;8.52;71.31
25945;SHT31;13742;49.306;8.636;2024-02-23T01:15:50;8.51;71.37
25945;SHT31;13742;49.306;8.636;2024-02-23T01:16:50;8.52;71.84
25945;SHT31;13742;49.306;8.636;2024-02-23T01:17:50;8.51;71.84
25945;SHT31;13742;49.306;8.636;2024-02-23T01:18:50;8.49;71.88
25945;SHT31;13742;49.306;8.636;2024-02-23T01:19:50;8.47;72.05
25945;SHT31;13742;49.306;8.636;2024-02-23T01:20:50;8.45;72.38
25945;SHT31;13742;49.306;8.636;2024-02-23T01:21:56;8.42;72.87
25945;SHT31;13742;49.306;8.636;2024-02-23T01:22:50;8.42;73.04
25945;SHT31;13742;49.306;8.636;2024-02-23T01:23:50;8.41;73.16
25945;SHT31;13742;49.306;8.636;2024-02-23T01:24:50;8.41;73.26
25945;SHT31;13742;49.306;8.636;2024-02-23T01:25:50;8.38;73.15
25945;SHT31;13742;49.306;8.636;2024-02-23T01:26:50;8.37;73.19
25945;SHT31;13742;49.306;8.636;2024-02-23T01:27:50;8.37;73.56
25945;SHT31;13742;49.306;8.636;2024-02-23T01:28:50;8.37;73.68
25945;SHT31;13742;49.306;8.636;2024-02-23T01:29:50;8.35;73.59
25945;SHT31;13742;49.306;8.636;2024-02-23T01:30:50;8.34;73.70
25945;SHT31;13742;49.306;8.636;2024-02-23T01:31:50;8.34;74.00
25945;SHT31;13742;49.306;8.636;2024-02-23T01:32:50;8.31;73.82
25945;SHT31;13742;49.306;8.636;2024-02-23T01:33:50;8.28;73.94
25945;SHT31;13742;49.306;8.636;2024-02-23T01:34:50;8.23;73.45
25945;SHT31;13742;49.306;8.636;2024-02-23T01:35:51;8.24;73.70
25945;SHT31;13742;49.306;8.636;2024-02-23T01:36:50;8.23;73.91
25945;SHT31;13742;49.306;8.636;2024-02-23T01:37:50;8.23;74.15
25945;SHT31;13742;49.306;8.636;2024-02-23T01:38:50;8.23;74.15
25945;SHT31;13742;49.306;8.636;2024-02-23T01:39:50;8.23;73.86
25945;SHT31;13742;49.306;8.636;2024-02-23T01:40:50;8.21;74.07
25945;SHT31;13742;49.306;8.636;2024-02-23T01:41:50;8.21;73.88
25945;SHT31;13742;49.306;8.636;2024-02-23T01:43:05;8.23;73.88
25945;SHT31;13742;49.306;8.636;2024-02-23T01:43:50;8.23;74.22
25945;SHT31;13742;49.306;8.636;2024-02-23T01:44:50;8.18;74.05
25945;SHT31;13742;49.306;8.636;2024-02-23T01:45:50;8.18;74.16
25945;SHT31;13742;49.306;8.636;2024-02-23T01:46:50;8.18;73.83
25945;SHT31;13742;49.306;8.636;2024-02-23T01:47:50;8.21;74.01
25945;SHT31;13742;49.306;8.636;2024-02-23T01:48:50;8.14;73.80
25945;SHT31;13742;49.306;8.636;2024-02-23T01:49:50;8.13;73.76
25945;SHT31;13742;49.306;8.636;2024-02-23T01:50:50;8.12;73.52
25945;SHT31;13742;49.306;8.636;2024-02-23T01:51:50;8.12;73.67
25945;SHT31;13742;49.306;8.636;2024-02-23T01:52:52;8.10;73.63
25945;SHT31;13742;49.306;8.636;2024-02-23T01:53:50;8.10;73.39
25945;SHT31;13742;49.306;8.636;2024-02-23T01:54:50;8.06;73.78
25945;SHT31;13742;49.306;8.636;2024-02-23T01:55:50;8.07;73.62
25945;SHT31;13742;49.306;8.636;2024-02-23T01:56:50;8.04;73.57
25945;SHT31;13742;49.306;8.636;2024-02-23T01:57:50;8.04;73.42
25945;SHT31;13742;49.306;8.636;2024-02-23T01:58:50;7.97;73.45
25945;SHT31;13742;49.306;8.636;2024-02-23T01:59:50;8.00;73.53
25945;SHT31;13742;49.306;8.636;2024-02-23T02:00:49;8.00;73.51
25945;SHT31;13742;49.306;8.636;2024-02-23T02:01:50;8.02;73.09
25945;SHT31;13742;49.306;8.636;2024-02-23T02:02:50;7.99;73.07
25945;SHT31;13742;49.306;8.636;2024-02-23T02:03:49;7.99;73.31
25945;SHT31;13742;49.306;8.636;2024-02-23T02:04:50;8.00;73.45
25945;SHT31;13742;49.306;8.636;2024-02-23T02:05:50;8.00;73.46
25945;SHT31;13742;49.306;8.636;2024-02-23T02:06:50;8.03;73.09
25945;SHT31;13742;49.306;8.636;2024-02-23T02:07:55;7.97;72.69
25945;SHT31;13742;49.306;8.636;2024-02-23T02:08:50;7.97;72.86
25945;SHT31;13742;49.306;8.636;2024-02-23T02:09:50;7.93;72.97
25945;SHT31;13742;49.306;8.636;2024-02-23T02:10:49;7.92;72.70
25945;SHT31;13742;49.306;8.636;2024-02-23T02:11:50;7.93;72.23
25945;SHT31;13742;49.306;8.636;2024-02-23T02:12:50;7.90;72.14
25945;SHT31;13742;49.306;8.636;2024-02-23T02:13:49;7.90;72.59
25945;SHT31;13742;49.306;8.636;2024-02-23T02:14:50;7.89;72.41
25945;SHT31;13742;49.306;8.636;2024-02-23T02:15:50;7.89;72.17
25945;SHT31;13742;49.306;8.636;2024-02-23T02:16:50;7.89;72.13
25945;SHT31;13742;49.306;8.636;2024-02-23T02:17:50;7.90;72.44
25945;SHT31;13742;49.306;8.636;2024-02-23T02:18:50;7.90;72.13
25945;SHT31;13742;49.306;8.636;2024-02-23T02:19:50;7.89;72.32
25945;SHT31;13742;49.306;8.636;2024-02-23T02:20:58;7.88;72.14
25945;SHT31;13742;49.306;8.636;2024-02-23T02:21:49;7.86;72.08
25945;SHT31;13742;49.306;8.636;2024-02-23T02:22:49;7.90;72.23
25945;SHT31;13742;49.306;8.636;2024-02-23T02:23:49;7.90;72.33
25945;SHT31;13742;49.306;8.636;2024-02-23T02:24:49;7.90;72.48
25945;SHT31;13742;49.306;8.636;2024-02-23T02:25:56;7.92;72.76
25945;SHT31;13742;49.306;8.636;2024-02-23T02:26:50;7.93;72.57
25945;SHT31;13742;49.306;8.636;2024-02-23T02:27:50;7.88;72.34
25945;SHT31;13742;49.306;8.636;2024-02-23T02:28:50;7.89;72.61
25945;SHT31;13742;49.306;8.636;2024-02-23T02:29:50;7.90;72.60
25945;SHT31;13742;49.306;8.636;2024-02-23T02:30:51;7.89;73.03
25945;SHT31;13742;49.306;8.636;2024-02-23T02:31:49;7.92;72.59
25945;SHT31;13742;49.306;8.636;2024-02-23T02:32:49;7.88;72.77
25945;SHT31;13742;49.306;8.636;2024-02-23T02:33:49;7.92;73.00
25945;SHT31;13742;49.306;8.636;2024-02-23T02:34:50;7.92;73.02
25945;SHT31;13742;49.306;8.636;2024-02-23T02:35:50;7.93;73.01
25945;SHT31;13742;49.306;8.636;2024-02-23T02:36:51;7.94;73.06
25945;SHT31;13742;49.306;8.636;2024-02-23T02:37:50;7.94;73.28
25945;SHT31;13742;49.306;8.636;2024-02-23T02:38:50;7.96;73.24
25945;SHT31;13742;49.306;8.636;2024-02-23T02:39:49;7.96;73.13
25945;SHT31;13742;49.306;8.636;2024-02-23T02:40:49;7.94;73.14
25945;SHT31;13742;49.306;8.636;2024-02-23T02:41:50;7.94;73.26
25945;SHT31;13742;49.306;8.636;2024-02-23T02:42:50;7.93;73.05
25945;SHT31;13742;49.306;8.636;2024-02-23T02:43:49;7.93;72.47
25945;SHT31;13742;49.306;8.636;2024-02-23T02:44:49;7.94;72.78
25945;SHT31;13742;49.306;8.636;2024-02-23T02:45:50;7.94;72.67
25945;SHT31;13742;49.306;8.636;2024-02-23T02:46:49;7.97;73.02
25945;SHT31;13742;49.306;8.636;2024-02-23T02:47:50;7.97;73.15
25945;SHT31;13742;49.306;8.636;2024-02-23T02:48:49;7.99;73.09
25945;SHT31;13742;49.306;8.636;2024-02-23T02:49:50;7.99;73.23
25945;SHT31;13742;49.306;8.636;2024-02-23T02:50:50;7.94;73.35
25945;SHT31;13742;49.306;8.636;2024-02-23T02:51:50;7.96;73.32
25945;SHT31;13742;49.306;8.636;2024-02-23T02:52:49;7.96;73.39
25945;SHT31;13742;49.306;8.636;2024-02-23T02:53:49;7.94;73.11
25945;SHT31;13742;49.306;8.636;2024-02-23T02:54:50;7.94;73.41
25945;SHT31;13742;49.306;8.636;2024-02-23T02:55:49;7.96;73.61
25945;SHT31;13742;49.306;8.636;2024-02-23T02:56:50;7.96;73.72
25945;SHT31;13742;49.306;8.636;2024-02-23T02:57:50;7.96;73.84
25945;SHT31;13742;49.306;8.636;2024-02-23T02:58:50;7.96;74.02
25945;SHT31;13742;49.306;8.636;2024-02-23T02:59:50;7.96;73.81
25945;SHT31;13742;49.306;8.636;2024-02-23T03:00:50;7.96;73.75
25945;SHT31;13742;49.306;8.636;2024-02-23T03:01:49;7.94;73.78
25945;SHT31;13742;49.306;8.636;2024-02-23T03:02:49;7.97;73.74
25945;SHT31;13742;49.306;8.636;2024-02-23T03:03:49;7.96;73.91
25945;SHT31;13742;49.306;8.636;2024-02-23T03:04:50;8.00;73.80
25945;SHT31;13742;49.306;8.636;2024-02-23T03:05:49;7.94;73.89
25945;SHT31;13742;49.306;8.636;2024-02-23T03:06:50;7.96;73.82
25945;SHT31;13742;49.306;8.636;2024-02-23T03:07:49;7.96;73.97
25945;SHT31;13742;49.306;8.636;2024-02-23T03:08:49;7.97;73.95
25945;SHT31;13742;49.306;8.636;2024-02-23T03:09:50;7.94;73.65
25945;SHT31;13742;49.306;8.636;2024-02-23T03:10:49;7.93;73.82
25945;SHT31;13742;49.306;8.636;2024-02-23T03:11:49;7.92;73.45
25945;SHT31;13742;49.306;8.636;2024-02-23T03:12:49;7.89;73.58
25945;SHT31;13742;49.306;8.636;2024-02-23T03:13:49;7.90;73.62
25945;SHT31;13742;49.306;8.636;2024-02-23T03:14:49;7.90;73.78
25945;SHT31;13742;49.306;8.636;2024-02-23T03:15:50;7.93;73.78
25945;SHT31;13742;49.306;8.636;2024-02-23T03:16:49;7.94;73.56
25945;SHT31;13742;49.306;8.636;2024-02-23T03:17:50;7.89;73.22
25945;SHT31;13742;49.306;8.636;2024-02-23T03:18:50;7.89;73.19
25945;SHT31;13742;49.306;8.636;2024-02-23T03:19:52;7.89;73.06
25945;SHT31;13742;49.306;8.636;2024-02-23T03:20:49;7.90;73.55
25945;SHT31;13742;49.306;8.636;2024-02-23T03:21:50;7.90;73.22
25945;SHT31;13742;49.306;8.636;2024-02-23T03:22:49;7.88;72.93
25945;SHT31;13742;49.306;8.636;2024-02-23T03:23:49;7.89;72.85
25945;SHT31;13742;49.306;8.636;2024-02-23T03:24:50;7.89;72.84
25945;SHT31;13742;49.306;8.636;2024-02-23T03:25:49;7.88;72.71
25945;SHT31;13742;49.306;8.636;2024-02-23T03:26:49;7.88;72.16
25945;SHT31;13742;49.306;8.636;2024-02-23T03:27:49;7.86;71.99
25945;SHT31;13742;49.306;8.636;2024-02-23T03:28:49;7.83;72.28
25945;SHT31;13742;49.306;8.636;2024-02-23T03:29:49;7.86;72.32
25945;SHT31;13742;49.306;8.636;2024-02-23T03:30:50;7.85;72.35
25945;SHT31;13742;49.306;8.636;2024-02-23T03:31:50;7.83;71.92
25945;SHT31;13742;49.306;8.636;2024-02-23T03:32:49;7.85;71.70
25945;SHT31;13742;49.306;8.636;2024-02-23T03:33:49;7.82;71.69
25945;SHT31;13742;49.306;8.636;2024-02-23T03:34:49;7.82;71.70
25945;SHT31;13742;49.306;8.636;2024-02-23T03:35:49;7.83;71.36
25945;SHT31;13742;49.306;8.636;2024-02-23T03:36:49;7.83;71.59
25945;SHT31;13742;49.306;8.636;2024-02-23T03:37:49;7.85;71.52
25945;SHT31;13742;49.306;8.636;2024-02-23T03:38:49;7.85;71.16
25945;SHT31;13742;49.306;8.636;2024-02-23T03:39:49;7.83;70.98
25945;SHT31;13742;49.306;8.636;2024-02-23T03:40:49;7.83;71.26
25945;SHT31;13742;49.306;8.636;2024-02-23T03:41:49;7.85;71.45
25945;SHT31;13742;49.306;8.636;2024-02-23T03:42:49;7.82;71.39
25945;SHT31;13742;49.306;8.636;2024-02-23T03:43:49;7.82;70.70
25945;SHT31;13742;49.306;8.636;2024-02-23T03:44:50;7.85;70.75
25945;SHT31;13742;49.306;8.636;2024-02-23T03:45:49;7.81;70.77
25945;SHT31;13742;49.306;8.636;2024-02-23T03:46:49;7.81;70.98
25945;SHT31;13742;49.306;8.636;2024-02-23T03:47:49;7.81;71.07
25945;SHT31;13742;49.306;8.636;2024-02-23T03:48:50;7.79;70.89
25945;SHT31;13742;49.306;8.636;2024-02-23T03:49:49;7.81;70.60
25945;SHT31;13742;49.306;8.636;2024-02-23T03:50:49;7.79;70.95
25945;SHT31;13742;49.306;8.636;2024-02-23T03:51:49;7.79;71.12
25945;SHT31;13742;49.306;8.636;2024-02-23T03:52:49;7.79;71.25
25945;SHT31;13742;49.306;8.636;2024-02-23T03:53:50;7.78;71.16
25945;SHT31;13742;49.306;8.636;2024-02-23T03:54:51;7.81;71.20
25945;SHT31;13742;49.306;8.636;2024-02-23T03:55:49;7.78;71.09
25945;SHT31;13742;49.306;8.636;2024-02-23T03:56:49;7.78;71.83
25945;SHT31;13742;49.306;8.636;2024-02-23T03:57:49;7.75;70.80
25945;SHT31;13742;49.306;8.636;2024-02-23T03:58:49;7.73;71.41
25945;SHT31;13742;49.306;8.636;2024-02-23T03:59:53;7.72;71.60
25945;SHT31;13742;49.306;8.636;2024-02-23T04:00:49;7.72;71.71
25945;SHT31;13742;49.306;8.636;2024-02-23T04:01:49;7.76;71.66
25945;SHT31;13742;49.306;8.636;2024-02-23T04:02:49;7.72;71.58
25945;SHT31;13742;49.306;8.636;2024-02-23T04:03:49;7.73;71.53
25945;SHT31;13742;49.306;8.636;2024-02-23T04:04:50;7.75;71.48
25945;SHT31;13742;49.306;8.636;2024-02-23T04:05:49;7.73;71.31
25945;SHT31;13742;49.306;8.636;2024-02-23T04:06:49;7.73;71.31
25945;SHT31;13742;49.306;8.636;2024-02-23T04:07:49;7.70;71.43
25945;SHT31;13742;49.306;8.636;2024-02-23T04:08:49;7.69;71.34
25945;SHT31;13742;49.306;8.636;2024-02-23T04:09:52;7.67;71.49
25945;SHT31;13742;49.306;8.636;2024-02-23T04:10:49;7.70;71.82
25945;SHT31;13742;49.306;8.636;2024-02-23T04:11:49;7.70;72.17
25945;SHT31;13742;49.306;8.636;2024-02-23T04:12:49;7.67;72.00
25945;SHT31;13742;49.306;8.636;2024-02-23T04:13:49;7.66;72.29
25945;SHT31;13742;49.306;8.636;2024-02-23T04:14:50;7.63;73.41
25945;SHT31;13742;49.306;8.636;2024-02-23T04:15:49;7.67;73.38
25945;SHT31;13742;49.306;8.636;2024-02-23T04:16:49;7.65;73.31
25945;SHT31;13742;49.306;8.636;2024-02-23T04:17:49;7.61;73.39
25945;SHT31;13742;49.306;8.636;2024-02-23T04:18:50;7.61;73.15
25945;SHT31;13742;49.306;8.636;2024-02-23T04:19:49;7.52;72.95
25945;SHT31;13742;49.306;8.636;2024-02-23T04:20:49;7.55;73.64
25945;SHT31;13742;49.306;8.636;2024-02-23T04:21:49;7.51;72.90
25945;SHT31;13742;49.306;8.636;2024-02-23T04:22:49;7.55;72.72
25945;SHT31;13742;49.306;8.636;2024-02-23T04:23:49;7.51;72.50
25945;SHT31;13742;49.306;8.636;2024-02-23T04:24:49;7.53;72.72
25945;SHT31;13742;49.306;8.636;2024-02-23T04:25:51;7.53;72.89
25945;SHT31;13742;49.306;8.636;2024-02-23T04:26:49;7.52;73.01
25945;SHT31;13742;49.306;8.636;2024-02-23T04:27:49;7.52;72.65
25945;SHT31;13742;49.306;8.636;2024-02-23T04:28:49;7.46;72.26
25945;SHT31;13742;49.306;8.636;2024-02-23T04:29:49;7.49;72.54
25945;SHT31;13742;49.306;8.636;2024-02-23T04:30:49;7.45;72.51
25945;SHT31;13742;49.306;8.636;2024-02-23T04:31:49;7.45;72.38
25945;SHT31;13742;49.306;8.636;2024-02-23T04:32:49;7.42;72.31
25945;SHT31;13742;49.306;8.636;2024-02-23T04:33:49;7.42;71.99
25945;SHT31;13742;49.306;8.636;2024-02-23T04:34:49;7.39;72.54
25945;SHT31;13742;49.306;8.636;2024-02-23T04:35:49;7.44;72.90
25945;SHT31;13742;49.306;8.636;2024-02-23T04:36:49;7.39;72.76
25945;SHT31;13742;49.306;8.636;2024-02-23T04:37:50;7.35;72.56
25945;SHT31;13742;49.306;8.636;2024-02-23T04:38:49;7.35;72.52
25945;SHT31;13742;49.306;8.636;2024-02-23T04:39:49;7.37;72.64
25945;SHT31;13742;49.306;8.636;2024-02-23T04:40:49;7.34;72.91
25945;SHT31;13742;49.306;8.636;2024-02-23T04:41:49;7.32;73.18
25945;SHT31;13742;49.306;8.636;2024-02-23T04:42:49;7.31;73.01
25945;SHT31;13742;49.306;8.636;2024-02-23T04:43:50;7.35;72.79
25945;SHT31;13742;49.306;8.636;2024-02-23T04:44:49;7.34;72.66
25945;SHT31;13742;49.306;8.636;2024-02-23T04:45:50;7.31;72.36
25945;SHT31;13742;49.306;8.636;2024-02-23T04:46:49;7.28;72.32
25945;SHT31;13742;49.306;8.636;2024-02-23T04:47:49;7.31;72.48
25945;SHT31;13742;49.306;8.636;2024-02-23T04:48:49;7.34;72.74
25945;SHT31;13742;49.306;8.636;2024-02-23T04:49:49;7.34;72.77
25945;SHT31;13742;49.306;8.636;2024-02-23T04:50:49;7.32;72.71
25945;SHT31;13742;49.306;8.636;2024-02-23T04:51:49;7.32;72.61
25945;SHT31;13742;49.306;8.636;2024-02-23T04:52:50;7.30;72.56
25945;SHT31;13742;49.306;8.636;2024-02-23T04:53:49;7.30;72.82
25945;SHT31;13742;49.306;8.636;2024-02-23T04:54:49;7.32;72.43
25945;SHT31;13742;49.306;8.636;2024-02-23T04:55:49;7.30;72.75
25945;SHT31;13742;49.306;8.636;2024-02-23T04:56:50;7.28;72.38
25945;SHT31;13742;49.306;8.636;2024-02-23T04:57:49;7.25;72.69
25945;SHT31;13742;49.306;8.636;2024-02-23T04:58:50;7.25;72.52
25945;SHT31;13742;49.306;8.636;2024-02-23T04:59:49;7.23;72.70
25945;SHT31;13742;49.306;8.636;2024-02-23T05:00:49;7.20;72.61
25945;SHT31;13742;49.306;8.636;2024-02-23T05:01:49;7.21;72.66
25945;SHT31;13742;49.306;8.636;2024-02-23T05:02:49;7.24;72.93
25945;SHT31;13742;49.306;8.636;2024-02-23T05:03:49;7.20;73.10
25945;SHT31;13742;49.306;8.636;2024-02-23T05:04:49;7.15;72.84
25945;SHT31;13742;49.306;8.636;2024-02-23T05:05:54;7.15;72.71
25945;SHT31;13742;49.306;8.636;2024-02-23T05:06:49;7.10;72.38
25945;SHT31;13742;49.306;8.636;2024-02-23T05:07:49;7.08;72.93
25945;SHT31;13742;49.306;8.636;2024-02-23T05:08:49;7.10;72.67
25945;SHT31;13742;49.306;8.636;2024-02-23T05:09:49;7.07;72.60
25945;SHT31;13742;49.306;8.636;2024-02-23T05:10:50;7.07;72.62
25945;SHT31;13742;49.306;8.636;2024-02-23T05:11:50;7.06;72.38
25945;SHT31;13742;49.306;8.636;2024-02-23T05:12:49;7.06;72.50
25945;SHT31;13742;49.306;8.636;2024-02-23T05:13:49;7.10;72.74
25945;SHT31;13742;49.306;8.636;2024-02-23T05:14:49;7.03;72.55
25945;SHT31;13742;49.306;8.636;2024-02-23T05:15:50;7.06;72.97
25945;SHT31;13742;49.306;8.636;2024-02-23T05:16:49;7.04;72.67
25945;SHT31;13742;49.306;8.636;2024-02-23T05:17:49;7.00;72.81
25945;SHT31;13742;49.306;8.636;2024-02-23T05:18:50;7.03;72.82
25945;SHT31;13742;49.306;8.636;2024-02-23T05:19:49;7.04;72.93
25945;SHT31;13742;49.306;8.636;2024-02-23T05:20:49;7.04;72.72
25945;SHT31;13742;49.306;8.636;2024-02-23T05:21:49;7.01;72.57
25945;SHT31;13742;49.306;8.636;2024-02-23T05:22:49;7.04;72.43
25945;SHT31;13742;49.306;8.636;2024-02-23T05:23:49;7.03;72.58
25945;SHT31;13742;49.306;8.636;2024-02-23T05:24:49;6.99;72.35
25945;SHT31;13742;49.306;8.636;2024-02-23T05:25:49;7.01;72.55
25945;SHT31;13742;49.306;8.636;2024-02-23T05:26:49;6.96;72.05
25945;SHT31;13742;49.306;8.636;2024-02-23T05:27:49;6.96;72.28
25945;SHT31;13742;49.306;8.636;2024-02-23T05:28:49;6.97;72.27
25945;SHT31;13742;49.306;8.636;2024-02-23T05:29:49;7.01;72.39
25945;SHT31;13742;49.306;8.636;2024-02-23T05:30:49;6.97;72.47
25945;SHT31;13742;49.306;8.636;2024-02-23T05:31:51;7.00;72.41
25945;SHT31;13742;49.306;8.636;2024-02-23T05:32:50;7.01;72.31
25945;SHT31;13742;49.306;8.636;2024-02-23T05:33:49;7.00;72.32
25945;SHT31;13742;49.306;8.636;2024-02-23T05:34:52;7.00;72.54
25945;SHT31;13742;49.306;8.636;2024-02-23T05:35:49;6.97;72.01
25945;SHT31;13742;49.306;8.636;2024-02-23T05:36:50;6.97;72.46
25945;SHT31;13742;49.306;8.636;2024-02-23T05:37:50;7.00;72.45
25945;SHT31;13742;49.306;8.636;2024-02-23T05:38:49;6.94;72.29
25945;SHT31;13742;49.306;8.636;2024-02-23T05:39:49;6.93;72.45
25945;SHT31;13742;49.306;8.636;2024-02-23T05:40:49;6.94;72.60
25945;SHT31;13742;49.306;8.636;2024-02-23T05:41:49;6.94;72.39
25945;SHT31;13742;49.306;8.636;2024-02-23T05:42:49;6.94;72.53
25945;SHT31;13742;49.306;8.636;2024-02-23T05:43:49;6.94;72.37
25945;SHT31;13742;49.306;8.636;2024-02-23T05:44:49;6.97;72.46
25945;SHT31;13742;49.306;8.636;2024-02-23T05:45:49;6.97;72.40
25945;SHT31;13742;49.306;8.636;2024-02-23T05:46:49;6.94;72.14
25945;SHT31;13742;49.306;8.636;2024-02-23T05:47:49;6.96;72.16
25945;SHT31;13742;49.306;8.636;2024-02-23T05:48:49;6.97;71.95
25945;SHT31;13742;49.306;8.636;2024-02-23T05:49:50;7.00;72.04
25945;SHT31;13742;49.306;8.636;2024-02-23T05:50:49;6.96;71.69
25945;SHT31;13742;49.306;8.636;2024-02-23T05:51:49;6.94;71.16
25945;SHT31;13742;49.306;8.636;2024-02-23T05:52:49;6.97;70.80
25945;SHT31;13742;49.306;8.636;2024-02-23T05:53:50;6.93;70.69
25945;SHT31;13742;49.306;8.636;2024-02-23T05:54:49;6.97;70.76
25945;SHT31;13742;49.306;8.636;2024-02-23T05:55:49;6.92;70.57
25945;SHT31;13742;49.306;8.636;2024-02-23T05:56:49;6.96;71.18
25945;SHT31;13742;49.306;8.636;2024-02-23T05:57:50;6.97;71.04
25945;SHT31;13742;49.306;8.636;2024-02-23T05:58:50;6.97;70.73
25945;SHT31;13742;49.306;8.636;2024-02-23T05:59:49;6.97;70.83
25945;SHT31;13742;49.306;8.636;2024-02-23T06:00:51;6.99;70.72
25945;SHT31;13742;49.306;8.636;2024-02-23T06:01:49;6.92;69.72
25945;SHT31;13742;49.306;8.636;2024-02-23T06:02:49;6.94;70.20
25945;SHT31;13742;49.306;8.636;2024-02-23T06:03:50;6.96;69.94
25945;SHT31;13742;49.306;8.636;2024-02-23T06:04:49;6.92;70.12
25945;SHT31;13742;49.306;8.636;2024-02-23T06:05:49;6.89;69.87
25945;SHT31;13742;49.306;8.636;2024-02-23T06:06:49;6.87;69.37
25945;SHT31;13742;49.306;8.636;2024-02-23T06:07:49;6.87;69.91
25945;SHT31;13742;49.306;8.636;2024-02-23T06:08:49;6.86;69.93
25945;SHT31;13742;49.306;8.636;2024-02-23T06:09:49;6.87;69.98
25945;SHT31;13742;49.306;8.636;2024-02-23T06:10:49;6.89;69.79
25945;SHT31;13742;49.306;8.636;2024-02-23T06:11:49;6.87;70.19
25945;SHT31;13742;49.306;8.636;2024-02-23T06:12:49;6.89;70.17
25945;SHT31;13742;49.306;8.636;2024-02-23T06:13:49;6.82;69.52
25945;SHT31;13742;49.306;8.636;2024-02-23T06:14:50;6.82;69.61
25945;SHT31;13742;49.306;8.636;2024-02-23T06:15:49;6.83;69.66
25945;SHT31;13742;49.306;8.636;2024-02-23T06:16:49;6.79;69.12
25945;SHT31;13742;49.306;8.636;2024-02-23T06:17:49;6.82;70.00
25945;SHT31;13742;49.306;8.636;2024-02-23T06:18:50;6.83;69.67
25945;SHT31;13742;49.306;8.636;2024-02-23T06:19:50;6.80;69.40
25945;SHT31;13742;49.306;8.636;2024-02-23T06:20:49;6.79;69.62
25945;SHT31;13742;49.306;8.636;2024-02-23T06:21:50;6.73;69.64
25945;SHT31;13742;49.306;8.636;2024-02-23T06:22:49;6.75;69.63
25945;SHT31;13742;49.306;8.636;2024-02-23T06:23:49;6.73;69.62
25945;SHT31;13742;49.306;8.636;2024-02-23T06:24:49;6.71;69.49